sensor_id;sensor_type;location;lat;lon;timestamp;temperature;humidity
60860;DHT22;46694;54.382;9.708;2023-10-31T00:01:54;12.30;99.90
60860;DHT22;46694;54.382;9.708;2023-10-31T00:04:20;12.30;99.90
60860;DHT22;46694;54.382;9.708;2023-10-31T00:06:46;12.30;99.90
60860;DHT22;46694;54.382;9.708;2023-10-31T00:09:12;12.30;99.90
60860;DHT22;46694;54.382;9.708;2023-10-31T00:11:38;12.30;99.90
60860;DHT22;46694;54.382;9.708;2023-10-31T00:14:06;12.30;99.90
60860;DHT22;46694;54.382;9.708;2023-10-31T00:16:33;12.30;99.90
60860;DHT22;46694;54.382;9.708;2023-10-31T00:18:59;12.30;99.90
60860;DHT22;46694;54.382;9.708;2023-10-31T00:21:25;12.30;99.90
60860;DHT22;46694;54.382;9.708;2023-10-31T00:23:51;12.30;99.90
60860;DHT22;46694;54.382;9.708;2023-10-31T00:26:17;12.30;99.90
60860;DHT22;46694;54.382;9.708;2023-10-31T00:28:42;12.30;99.90
60860;DHT22;46694;54.382;9.708;2023-10-31T00:31:08;12.30;99.90
60860;DHT22;46694;54.382;9.708;2023-10-31T00:33:37;12.30;99.90
60860;DHT22;46694;54.382;9.708;2023-10-31T00:36:03;12.30;99.90
60860;DHT22;46694;54.382;9.708;2023-10-31T00:38:29;12.30;99.90
60860;DHT22;46694;54.382;9.708;2023-10-31T00:40:55;12.20;99.90
60860;DHT22;46694;54.382;9.708;2023-10-31T00:43:21;12.20;99.90
60860;DHT22;46694;54.382;9.708;2023-10-31T00:45:47;12.20;99.90
60860;DHT22;46694;54.382;9.708;2023-10-31T00:48:13;12.20;99.90
60860;DHT22;46694;54.382;9.708;2023-10-31T00:50:39;12.20;99.90
60860;DHT22;46694;54.382;9.708;2023-10-31T00:53:05;12.20;99.90
60860;DHT22;46694;54.382;9.708;2023-10-31T00:55:30;12.20;99.90
60860;DHT22;46694;54.382;9.708;2023-10-31T00:57:56;12.20;99.90
60860;DHT22;46694;54.382;9.708;2023-10-31T01:00:22;12.20;99.90
60860;DHT22;46694;54.382;9.708;2023-10-31T01:02:48;12.20;99.90
60860;DHT22;46694;54.382;9.708;2023-10-31T01:05:13;12.20;99.90
60860;DHT22;46694;54.382;9.708;2023-10-31T01:07:39;12.20;99.90
60860;DHT22;46694;54.382;9.708;2023-10-31T01:10:05;12.20;99.90
60860;DHT22;46694;54.382;9.708;2023-10-31T01:12:32;12.20;99.90
60860;DHT22;46694;54.382;9.708;2023-10-31T01:14:58;12.20;99.90
60860;DHT22;46694;54.382;9.708;2023-10-31T01:17:24;12.20;99.90
60860;DHT22;46694;54.382;9.708;2023-10-31T01:19:50;12.10;99.90
60860;DHT22;46694;54.382;9.708;2023-10-31T01:22:15;12.10;99.90
60860;DHT22;46694;54.382;9.708;2023-10-31T01:24:41;12.10;99.90
60860;DHT22;46694;54.382;9.708;2023-10-31T01:27:07;12.10;99.90
60860;DHT22;46694;54.382;9.708;2023-10-31T01:29:33;12.10;99.90
60860;DHT22;46694;54.382;9.708;2023-10-31T01:31:59;12.10;99.90
60860;DHT22;46694;54.382;9.708;2023-10-31T01:34:24;12.10;99.90
60860;DHT22;46694;54.382;9.708;2023-10-31T01:36:50;12.20;99.90
60860;DHT22;46694;54.382;9.708;2023-10-31T01:39:16;12.20;99.90
60860;DHT22;46694;54.382;9.708;2023-10-31T01:41:42;12.20;99.90
60860;DHT22;46694;54.382;9.708;2023-10-31T01:44:12;12.20;99.90
60860;DHT22;46694;54.382;9.708;2023-10-31T01:46:38;12.20;99.90
60860;DHT22;46694;54.382;9.708;2023-10-31T01:49:03;12.30;99.90
60860;DHT22;46694;54.382;9.708;2023-10-31T01:51:29;12.30;99.90
60860;DHT22;46694;54.382;9.708;2023-10-31T01:53:56;12.30;99.90
60860;DHT22;46694;54.382;9.708;2023-10-31T01:56:23;12.30;99.90
60860;DHT22;46694;54.382;9.708;2023-10-31T01:58:49;12.30;99.90
60860;DHT22;46694;54.382;9.708;2023-10-31T02:01:15;12.30;99.90
60860;DHT22;46694;54.382;9.708;2023-10-31T02:03:42;12.30;99.90
60860;DHT22;46694;54.382;9.708;2023-10-31T02:06:08;12.30;99.90
60860;DHT22;46694;54.382;9.708;2023-10-31T02:08:34;12.30;99.90
60860;DHT22;46694;54.382;9.708;2023-10-31T02:11:00;12.30;99.90
60860;DHT22;46694;54.382;9.708;2023-10-31T02:13:26;12.30;99.90
60860;DHT22;46694;54.382;9.708;2023-10-31T02:15:52;12.30;99.90
60860;DHT22;46694;54.382;9.708;2023-10-31T02:18:18;12.30;99.90
60860;DHT22;46694;54.382;9.708;2023-10-31T02:20:44;12.30;99.90
60860;DHT22;46694;54.382;9.708;2023-10-31T02:23:10;12.30;99.90
60860;DHT22;46694;54.382;9.708;2023-10-31T02:25:36;12.30;99.90
60860;DHT22;46694;54.382;9.708;2023-10-31T02:28:01;12.20;99.90
60860;DHT22;46694;54.382;9.708;2023-10-31T02:30:28;12.20;99.90
60860;DHT22;46694;54.382;9.708;2023-10-31T02:32:53;12.20;99.90
60860;DHT22;46694;54.382;9.708;2023-10-31T02:35:20;12.20;99.90
60860;DHT22;46694;54.382;9.708;2023-10-31T02:37:46;12.20;99.90
60860;DHT22;46694;54.382;9.708;2023-10-31T02:40:14;12.20;99.90
60860;DHT22;46694;54.382;9.708;2023-10-31T02:42:40;12.20;99.90
60860;DHT22;46694;54.382;9.708;2023-10-31T02:45:06;12.20;99.90
60860;DHT22;46694;54.382;9.708;2023-10-31T02:47:33;12.20;99.90
60860;DHT22;46694;54.382;9.708;2023-10-31T02:49:59;12.20;99.90
60860;DHT22;46694;54.382;9.708;2023-10-31T02:52:25;12.20;99.90
60860;DHT22;46694;54.382;9.708;2023-10-31T02:54:51;12.20;99.90
60860;DHT22;46694;54.382;9.708;2023-10-31T02:57:17;12.20;99.90
60860;DHT22;46694;54.382;9.708;2023-10-31T02:59:43;12.20;99.90
60860;DHT22;46694;54.382;9.708;2023-10-31T03:02:08;12.30;99.90
60860;DHT22;46694;54.382;9.708;2023-10-31T03:04:34;12.30;99.90
60860;DHT22;46694;54.382;9.708;2023-10-31T03:07:00;12.30;99.90
60860;DHT22;46694;54.382;9.708;2023-10-31T03:09:26;12.30;99.90
60860;DHT22;46694;54.382;9.708;2023-10-31T03:11:53;12.30;99.90
60860;DHT22;46694;54.382;9.708;2023-10-31T03:14:18;12.30;99.90
60860;DHT22;46694;54.382;9.708;2023-10-31T03:16:44;12.30;99.90
60860;DHT22;46694;54.382;9.708;2023-10-31T03:19:10;12.30;99.90
60860;DHT22;46694;54.382;9.708;2023-10-31T03:21:36;12.30;99.90
60860;DHT22;46694;54.382;9.708;2023-10-31T03:24:02;12.30;99.90
60860;DHT22;46694;54.382;9.708;2023-10-31T03:26:27;12.30;99.90
60860;DHT22;46694;54.382;9.708;2023-10-31T03:28:53;12.30;99.90
60860;DHT22;46694;54.382;9.708;2023-10-31T03:31:23;12.30;99.90
60860;DHT22;46694;54.382;9.708;2023-10-31T03:33:49;12.30;99.90
60860;DHT22;46694;54.382;9.708;2023-10-31T03:36:16;12.30;99.90
60860;DHT22;46694;54.382;9.708;2023-10-31T03:38:42;12.30;99.90
60860;DHT22;46694;54.382;9.708;2023-10-31T03:41:08;12.30;99.90
60860;DHT22;46694;54.382;9.708;2023-10-31T03:43:34;12.30;99.90
60860;DHT22;46694;54.382;9.708;2023-10-31T03:46:00;12.30;99.90
60860;DHT22;46694;54.382;9.708;2023-10-31T03:48:26;12.20;99.90
60860;DHT22;46694;54.382;9.708;2023-10-31T03:50:52;12.20;99.90
60860;DHT22;46694;54.382;9.708;2023-10-31T03:53:18;12.20;99.90
60860;DHT22;46694;54.382;9.708;2023-10-31T03:55:44;12.20;99.90
60860;DHT22;46694;54.382;9.708;2023-10-31T03:58:10;12.20;99.90
60860;DHT22;46694;54.382;9.708;2023-10-31T04:00:36;12.20;99.90
60860;DHT22;46694;54.382;9.708;2023-10-31T04:03:02;12.20;99.90
60860;DHT22;46694;54.382;9.708;2023-10-31T04:05:28;12.20;99.90
60860;DHT22;46694;54.382;9.708;2023-10-31T04:07:54;12.10;99.90
60860;DHT22;46694;54.382;9.708;2023-10-31T04:10:20;12.10;99.90
60860;DHT22;46694;54.382;9.708;2023-10-31T04:12:46;12.10;99.90
60860;DHT22;46694;54.382;9.708;2023-10-31T04:15:11;12.10;99.90
60860;DHT22;46694;54.382;9.708;2023-10-31T04:17:38;12.10;99.90
60860;DHT22;46694;54.382;9.708;2023-10-31T04:20:04;12.10;99.90
60860;DHT22;46694;54.382;9.708;2023-10-31T04:22:31;12.10;99.90
60860;DHT22;46694;54.382;9.708;2023-10-31T04:24:56;12.10;99.90
60860;DHT22;46694;54.382;9.708;2023-10-31T04:27:22;12.00;99.90
60860;DHT22;46694;54.382;9.708;2023-10-31T04:29:48;12.00;99.90
60860;DHT22;46694;54.382;9.708;2023-10-31T04:32:14;12.00;99.90
60860;DHT22;46694;54.382;9.708;2023-10-31T04:34:40;12.00;99.90
60860;DHT22;46694;54.382;9.708;2023-10-31T04:37:06;12.00;99.90
60860;DHT22;46694;54.382;9.708;2023-10-31T04:39:32;12.00;99.90
60860;DHT22;46694;54.382;9.708;2023-10-31T04:41:57;12.00;99.90
60860;DHT22;46694;54.382;9.708;2023-10-31T04:44:23;12.00;99.90
60860;DHT22;46694;54.382;9.708;2023-10-31T04:46:49;12.00;99.90
60860;DHT22;46694;54.382;9.708;2023-10-31T04:49:15;12.00;99.90
60860;DHT22;46694;54.382;9.708;2023-10-31T04:51:41;12.00;99.90
60860;DHT22;46694;54.382;9.708;2023-10-31T04:54:07;12.00;99.90
60860;DHT22;46694;54.382;9.708;2023-10-31T04:56:49;12.00;99.90
60860;DHT22;46694;54.382;9.708;2023-10-31T04:59:15;12.00;99.90
60860;DHT22;46694;54.382;9.708;2023-10-31T05:01:40;12.00;99.90
60860;DHT22;46694;54.382;9.708;2023-10-31T05:04:06;12.00;99.90
60860;DHT22;46694;54.382;9.708;2023-10-31T05:06:32;11.90;99.90
60860;DHT22;46694;54.382;9.708;2023-10-31T05:08:58;11.90;99.90
60860;DHT22;46694;54.382;9.708;2023-10-31T05:11:24;11.90;99.90
60860;DHT22;46694;54.382;9.708;2023-10-31T05:13:50;11.90;99.90
60860;DHT22;46694;54.382;9.708;2023-10-31T05:16:16;11.90;99.90
60860;DHT22;46694;54.382;9.708;2023-10-31T05:18:42;11.90;99.90
60860;DHT22;46694;54.382;9.708;2023-10-31T05:21:07;11.90;99.90
60860;DHT22;46694;54.382;9.708;2023-10-31T05:23:33;11.90;99.90
60860;DHT22;46694;54.382;9.708;2023-10-31T05:25:59;11.90;99.90
60860;DHT22;46694;54.382;9.708;2023-10-31T05:28:25;12.00;99.90
60860;DHT22;46694;54.382;9.708;2023-10-31T05:30:50;12.00;99.90
60860;DHT22;46694;54.382;9.708;2023-10-31T05:33:17;11.90;99.90
60860;DHT22;46694;54.382;9.708;2023-10-31T05:35:42;11.90;99.90
60860;DHT22;46694;54.382;9.708;2023-10-31T05:38:08;11.90;99.90
60860;DHT22;46694;54.382;9.708;2023-10-31T05:40:34;11.90;99.90
60860;DHT22;46694;54.382;9.708;2023-10-31T05:43:03;11.90;99.90
60860;DHT22;46694;54.382;9.708;2023-10-31T05:45:30;11.90;99.90
60860;DHT22;46694;54.382;9.708;2023-10-31T05:47:56;11.90;99.90
60860;DHT22;46694;54.382;9.708;2023-10-31T05:50:22;11.80;99.90
60860;DHT22;46694;54.382;9.708;2023-10-31T05:52:47;11.80;99.90
60860;DHT22;46694;54.382;9.708;2023-10-31T05:55:13;11.80;99.90
60860;DHT22;46694;54.382;9.708;2023-10-31T05:57:39;11.70;99.90
60860;DHT22;46694;54.382;9.708;2023-10-31T06:00:06;11.80;99.90
60860;DHT22;46694;54.382;9.708;2023-10-31T06:02:33;11.70;99.90
60860;DHT22;46694;54.382;9.708;2023-10-31T06:04:59;11.70;99.90
60860;DHT22;46694;54.382;9.708;2023-10-31T06:07:25;11.70;99.90
60860;DHT22;46694;54.382;9.708;2023-10-31T06:09:51;11.70;99.90
60860;DHT22;46694;54.382;9.708;2023-10-31T06:12:17;11.70;99.90
60860;DHT22;46694;54.382;9.708;2023-10-31T06:14:43;11.70;99.90
60860;DHT22;46694;54.382;9.708;2023-10-31T06:17:09;11.70;99.90
60860;DHT22;46694;54.382;9.708;2023-10-31T06:19:36;11.60;99.90
60860;DHT22;46694;54.382;9.708;2023-10-31T06:22:02;11.60;99.90
60860;DHT22;46694;54.382;9.708;2023-10-31T06:24:28;11.60;99.90
60860;DHT22;46694;54.382;9.708;2023-10-31T06:26:54;11.60;99.90
60860;DHT22;46694;54.382;9.708;2023-10-31T06:29:20;11.60;99.90
60860;DHT22;46694;54.382;9.708;2023-10-31T06:31:46;11.60;99.90
60860;DHT22;46694;54.382;9.708;2023-10-31T06:34:13;11.60;99.90
60860;DHT22;46694;54.382;9.708;2023-10-31T06:36:38;11.60;99.90
60860;DHT22;46694;54.382;9.708;2023-10-31T06:39:04;11.60;99.90
60860;DHT22;46694;54.382;9.708;2023-10-31T06:41:30;11.60;99.90
60860;DHT22;46694;54.382;9.708;2023-10-31T06:43:56;11.60;99.90
60860;DHT22;46694;54.382;9.708;2023-10-31T06:46:22;11.60;99.90
60860;DHT22;46694;54.382;9.708;2023-10-31T06:48:47;11.60;99.90
60860;DHT22;46694;54.382;9.708;2023-10-31T06:51:13;11.60;99.90
60860;DHT22;46694;54.382;9.708;2023-10-31T06:53:39;11.60;99.90
60860;DHT22;46694;54.382;9.708;2023-10-31T06:56:05;11.60;99.90
60860;DHT22;46694;54.382;9.708;2023-10-31T06:58:31;11.60;99.90
60860;DHT22;46694;54.382;9.708;2023-10-31T07:00:57;11.50;99.90
60860;DHT22;46694;54.382;9.708;2023-10-31T07:03:23;11.50;99.90
60860;DHT22;46694;54.382;9.708;2023-10-31T07:05:49;11.50;99.90
60860;DHT22;46694;54.382;9.708;2023-10-31T07:08:15;11.50;99.90
60860;DHT22;46694;54.382;9.708;2023-10-31T07:10:41;11.50;99.90
60860;DHT22;46694;54.382;9.708;2023-10-31T07:13:07;11.50;99.90
60860;DHT22;46694;54.382;9.708;2023-10-31T07:15:32;11.50;99.90
60860;DHT22;46694;54.382;9.708;2023-10-31T07:18:05;11.50;99.90
60860;DHT22;46694;54.382;9.708;2023-10-31T07:20:33;11.50;99.90
60860;DHT22;46694;54.382;9.708;2023-10-31T07:22:59;11.50;99.90
60860;DHT22;46694;54.382;9.708;2023-10-31T07:25:25;11.50;99.90
60860;DHT22;46694;54.382;9.708;2023-10-31T07:27:50;11.50;99.90
60860;DHT22;46694;54.382;9.708;2023-10-31T07:30:16;11.60;99.90
60860;DHT22;46694;54.382;9.708;2023-10-31T07:32:42;11.50;99.90
60860;DHT22;46694;54.382;9.708;2023-10-31T07:35:08;11.50;99.90
60860;DHT22;46694;54.382;9.708;2023-10-31T07:37:34;11.50;99.90
60860;DHT22;46694;54.382;9.708;2023-10-31T07:40:00;11.50;99.90
60860;DHT22;46694;54.382;9.708;2023-10-31T07:42:26;11.40;99.90
60860;DHT22;46694;54.382;9.708;2023-10-31T07:44:51;11.40;99.90
60860;DHT22;46694;54.382;9.708;2023-10-31T07:47:17;11.40;99.90
60860;DHT22;46694;54.382;9.708;2023-10-31T07:49:43;11.40;99.90
60860;DHT22;46694;54.382;9.708;2023-10-31T07:52:09;11.40;99.90
60860;DHT22;46694;54.382;9.708;2023-10-31T07:54:35;11.40;99.90
60860;DHT22;46694;54.382;9.708;2023-10-31T07:57:04;11.40;99.90
60860;DHT22;46694;54.382;9.708;2023-10-31T07:59:33;11.40;99.90
60860;DHT22;46694;54.382;9.708;2023-10-31T08:02:00;11.40;99.90
60860;DHT22;46694;54.382;9.708;2023-10-31T08:04:26;11.40;99.90
60860;DHT22;46694;54.382;9.708;2023-10-31T08:06:53;11.40;99.90
60860;DHT22;46694;54.382;9.708;2023-10-31T08:09:19;11.40;99.90
60860;DHT22;46694;54.382;9.708;2023-10-31T08:11:45;11.40;99.90
60860;DHT22;46694;54.382;9.708;2023-10-31T08:14:11;11.40;99.90
60860;DHT22;46694;54.382;9.708;2023-10-31T08:16:37;11.40;99.90
60860;DHT22;46694;54.382;9.708;2023-10-31T08:19:02;11.40;99.90
60860;DHT22;46694;54.382;9.708;2023-10-31T08:21:28;11.40;99.90
60860;DHT22;46694;54.382;9.708;2023-10-31T08:24:00;11.40;99.90
60860;DHT22;46694;54.382;9.708;2023-10-31T08:26:26;11.40;99.90
60860;DHT22;46694;54.382;9.708;2023-10-31T08:28:52;11.30;99.90
60860;DHT22;46694;54.382;9.708;2023-10-31T08:31:18;11.40;99.90
60860;DHT22;46694;54.382;9.708;2023-10-31T08:33:45;11.30;99.90
60860;DHT22;46694;54.382;9.708;2023-10-31T08:36:10;11.30;99.90
60860;DHT22;46694;54.382;9.708;2023-10-31T08:38:36;11.20;99.90
60860;DHT22;46694;54.382;9.708;2023-10-31T08:41:02;11.20;99.90
60860;DHT22;46694;54.382;9.708;2023-10-31T08:43:28;11.20;99.90
60860;DHT22;46694;54.382;9.708;2023-10-31T08:45:54;11.10;99.90
60860;DHT22;46694;54.382;9.708;2023-10-31T08:48:20;11.00;99.90
60860;DHT22;46694;54.382;9.708;2023-10-31T08:50:46;11.00;99.90
60860;DHT22;46694;54.382;9.708;2023-10-31T08:53:12;11.00;99.90
60860;DHT22;46694;54.382;9.708;2023-10-31T08:55:38;10.90;99.90
60860;DHT22;46694;54.382;9.708;2023-10-31T08:58:04;10.80;99.90
60860;DHT22;46694;54.382;9.708;2023-10-31T09:00:29;10.80;99.90
60860;DHT22;46694;54.382;9.708;2023-10-31T09:02:55;10.70;99.90
60860;DHT22;46694;54.382;9.708;2023-10-31T09:05:21;10.60;99.90
60860;DHT22;46694;54.382;9.708;2023-10-31T09:07:47;10.60;99.90
60860;DHT22;46694;54.382;9.708;2023-10-31T09:10:13;10.60;99.90
60860;DHT22;46694;54.382;9.708;2023-10-31T09:12:39;10.50;99.90
60860;DHT22;46694;54.382;9.708;2023-10-31T09:15:05;10.50;99.90
60860;DHT22;46694;54.382;9.708;2023-10-31T09:17:31;10.50;99.90
60860;DHT22;46694;54.382;9.708;2023-10-31T09:19:57;10.40;99.90
60860;DHT22;46694;54.382;9.708;2023-10-31T09:22:24;10.40;99.90
60860;DHT22;46694;54.382;9.708;2023-10-31T09:24:50;10.40;99.90
60860;DHT22;46694;54.382;9.708;2023-10-31T09:27:16;10.30;99.90
60860;DHT22;46694;54.382;9.708;2023-10-31T09:29:41;10.30;99.90
60860;DHT22;46694;54.382;9.708;2023-10-31T09:32:07;10.30;99.90
60860;DHT22;46694;54.382;9.708;2023-10-31T09:34:33;10.20;99.90
60860;DHT22;46694;54.382;9.708;2023-10-31T09:36:59;10.20;99.90
60860;DHT22;46694;54.382;9.708;2023-10-31T09:39:25;10.10;99.90
60860;DHT22;46694;54.382;9.708;2023-10-31T09:41:50;10.00;99.90
60860;DHT22;46694;54.382;9.708;2023-10-31T09:44:16;10.00;99.90
60860;DHT22;46694;54.382;9.708;2023-10-31T09:46:42;9.90;99.90
60860;DHT22;46694;54.382;9.708;2023-10-31T09:49:09;9.90;99.90
60860;DHT22;46694;54.382;9.708;2023-10-31T09:51:37;9.90;99.90
60860;DHT22;46694;54.382;9.708;2023-10-31T09:54:05;9.90;99.90
60860;DHT22;46694;54.382;9.708;2023-10-31T09:56:32;9.90;99.90
60860;DHT22;46694;54.382;9.708;2023-10-31T09:59:00;9.90;99.90
60860;DHT22;46694;54.382;9.708;2023-10-31T10:01:28;9.90;99.90
60860;DHT22;46694;54.382;9.708;2023-10-31T10:03:54;9.90;99.90
60860;DHT22;46694;54.382;9.708;2023-10-31T10:06:21;9.90;99.90
60860;DHT22;46694;54.382;9.708;2023-10-31T10:08:49;9.80;99.90
60860;DHT22;46694;54.382;9.708;2023-10-31T10:11:16;9.80;99.90
60860;DHT22;46694;54.382;9.708;2023-10-31T10:13:42;9.80;99.90
60860;DHT22;46694;54.382;9.708;2023-10-31T10:16:09;9.80;99.90
60860;DHT22;46694;54.382;9.708;2023-10-31T10:18:36;9.80;99.90
60860;DHT22;46694;54.382;9.708;2023-10-31T10:21:07;9.80;99.90
60860;DHT22;46694;54.382;9.708;2023-10-31T10:23:34;9.70;99.90
60860;DHT22;46694;54.382;9.708;2023-10-31T10:26:01;9.70;99.90
60860;DHT22;46694;54.382;9.708;2023-10-31T10:28:27;9.70;99.90
60860;DHT22;46694;54.382;9.708;2023-10-31T10:30:55;9.60;99.90
60860;DHT22;46694;54.382;9.708;2023-10-31T10:33:22;9.60;99.90
60860;DHT22;46694;54.382;9.708;2023-10-31T10:35:48;9.60;99.90
60860;DHT22;46694;54.382;9.708;2023-10-31T10:38:16;9.60;99.90
60860;DHT22;46694;54.382;9.708;2023-10-31T10:40:45;9.50;99.90
60860;DHT22;46694;54.382;9.708;2023-10-31T10:43:23;9.50;99.90
60860;DHT22;46694;54.382;9.708;2023-10-31T10:45:58;9.50;99.90
60860;DHT22;46694;54.382;9.708;2023-10-31T10:48:27;9.40;99.90
60860;DHT22;46694;54.382;9.708;2023-10-31T10:51:06;9.40;99.90
60860;DHT22;46694;54.382;9.708;2023-10-31T10:53:52;9.40;99.90
60860;DHT22;46694;54.382;9.708;2023-10-31T10:56:34;9.40;99.90
60860;DHT22;46694;54.382;9.708;2023-10-31T10:59:13;9.40;99.90
60860;DHT22;46694;54.382;9.708;2023-10-31T11:01:41;9.40;99.90
60860;DHT22;46694;54.382;9.708;2023-10-31T11:04:08;9.40;99.90
60860;DHT22;46694;54.382;9.708;2023-10-31T11:06:37;9.40;99.90
60860;DHT22;46694;54.382;9.708;2023-10-31T11:09:03;9.40;99.90
60860;DHT22;46694;54.382;9.708;2023-10-31T11:11:32;9.30;99.90
60860;DHT22;46694;54.382;9.708;2023-10-31T11:14:00;9.40;99.90
60860;DHT22;46694;54.382;9.708;2023-10-31T11:16:34;9.40;99.90
60860;DHT22;46694;54.382;9.708;2023-10-31T11:19:03;9.40;99.90
60860;DHT22;46694;54.382;9.708;2023-10-31T11:21:31;9.30;99.90
60860;DHT22;46694;54.382;9.708;2023-10-31T11:23:58;9.30;99.90
60860;DHT22;46694;54.382;9.708;2023-10-31T11:26:28;9.30;99.90
60860;DHT22;46694;54.382;9.708;2023-10-31T11:29:05;9.30;99.90
60860;DHT22;46694;54.382;9.708;2023-10-31T11:31:37;9.20;99.90
60860;DHT22;46694;54.382;9.708;2023-10-31T11:34:03;9.20;99.90
60860;DHT22;46694;54.382;9.708;2023-10-31T11:36:32;9.20;99.90
60860;DHT22;46694;54.382;9.708;2023-10-31T11:39:14;9.10;99.90
60860;DHT22;46694;54.382;9.708;2023-10-31T11:41:50;9.10;99.90
60860;DHT22;46694;54.382;9.708;2023-10-31T11:44:17;9.10;99.90
60860;DHT22;46694;54.382;9.708;2023-10-31T11:46:43;9.00;99.90
60860;DHT22;46694;54.382;9.708;2023-10-31T11:49:13;9.00;99.90
60860;DHT22;46694;54.382;9.708;2023-10-31T11:51:39;8.90;99.90
60860;DHT22;46694;54.382;9.708;2023-10-31T11:54:05;8.90;99.90
60860;DHT22;46694;54.382;9.708;2023-10-31T11:56:34;9.00;99.90
60860;DHT22;46694;54.382;9.708;2023-10-31T11:59:02;9.00;99.90
60860;DHT22;46694;54.382;9.708;2023-10-31T12:01:29;9.00;99.90
60860;DHT22;46694;54.382;9.708;2023-10-31T12:03:55;9.00;99.90
60860;DHT22;46694;54.382;9.708;2023-10-31T12:06:21;8.90;99.90
60860;DHT22;46694;54.382;9.708;2023-10-31T12:08:48;8.90;99.90
60860;DHT22;46694;54.382;9.708;2023-10-31T12:11:19;9.00;99.90
60860;DHT22;46694;54.382;9.708;2023-10-31T12:16:26;8.90;99.90
60860;DHT22;46694;54.382;9.708;2023-10-31T12:18:58;8.80;99.90
60860;DHT22;46694;54.382;9.708;2023-10-31T12:21:43;8.80;99.90
60860;DHT22;46694;54.382;9.708;2023-10-31T12:24:13;8.90;99.90
60860;DHT22;46694;54.382;9.708;2023-10-31T12:26:40;8.90;99.90
60860;DHT22;46694;54.382;9.708;2023-10-31T12:29:12;9.00;99.90
60860;DHT22;46694;54.382;9.708;2023-10-31T12:31:47;8.90;99.90
60860;DHT22;46694;54.382;9.708;2023-10-31T12:34:18;8.90;99.90
60860;DHT22;46694;54.382;9.708;2023-10-31T12:36:46;8.80;99.90
60860;DHT22;46694;54.382;9.708;2023-10-31T12:39:13;8.70;99.90
60860;DHT22;46694;54.382;9.708;2023-10-31T12:41:40;8.70;99.90
60860;DHT22;46694;54.382;9.708;2023-10-31T12:44:07;8.70;99.90
60860;DHT22;46694;54.382;9.708;2023-10-31T12:46:40;8.70;99.90
60860;DHT22;46694;54.382;9.708;2023-10-31T12:49:19;8.70;99.90
60860;DHT22;46694;54.382;9.708;2023-10-31T12:52:02;8.80;99.90
60860;DHT22;46694;54.382;9.708;2023-10-31T12:54:37;8.70;99.90
60860;DHT22;46694;54.382;9.708;2023-10-31T12:57:08;8.70;99.90
60860;DHT22;46694;54.382;9.708;2023-10-31T12:59:36;8.70;99.90
60860;DHT22;46694;54.382;9.708;2023-10-31T13:02:06;8.70;99.90
60860;DHT22;46694;54.382;9.708;2023-10-31T13:04:33;8.60;99.90
60860;DHT22;46694;54.382;9.708;2023-10-31T13:07:01;8.70;99.90
60860;DHT22;46694;54.382;9.708;2023-10-31T13:09:28;8.70;99.90
60860;DHT22;46694;54.382;9.708;2023-10-31T13:12:02;8.70;99.90
60860;DHT22;46694;54.382;9.708;2023-10-31T13:14:29;8.80;99.90
60860;DHT22;46694;54.382;9.708;2023-10-31T13:16:55;8.80;99.90
60860;DHT22;46694;54.382;9.708;2023-10-31T13:19:21;8.80;99.90
60860;DHT22;46694;54.382;9.708;2023-10-31T13:21:47;8.80;99.90
60860;DHT22;46694;54.382;9.708;2023-10-31T13:24:13;8.70;99.90
60860;DHT22;46694;54.382;9.708;2023-10-31T13:26:39;8.60;99.90
60860;DHT22;46694;54.382;9.708;2023-10-31T13:29:05;8.50;99.90
60860;DHT22;46694;54.382;9.708;2023-10-31T13:31:31;8.40;99.90
60860;DHT22;46694;54.382;9.708;2023-10-31T13:33:57;8.40;99.90
60860;DHT22;46694;54.382;9.708;2023-10-31T13:36:23;8.30;99.90
60860;DHT22;46694;54.382;9.708;2023-10-31T13:38:49;8.30;99.90
60860;DHT22;46694;54.382;9.708;2023-10-31T13:41:15;8.30;99.90
60860;DHT22;46694;54.382;9.708;2023-10-31T13:43:41;8.30;99.90
60860;DHT22;46694;54.382;9.708;2023-10-31T13:46:06;8.20;99.90
60860;DHT22;46694;54.382;9.708;2023-10-31T13:48:32;8.20;99.90
60860;DHT22;46694;54.382;9.708;2023-10-31T13:50:58;8.10;99.90
60860;DHT22;46694;54.382;9.708;2023-10-31T13:53:25;8.10;99.90
60860;DHT22;46694;54.382;9.708;2023-10-31T13:55:51;8.10;99.90
60860;DHT22;46694;54.382;9.708;2023-10-31T13:58:17;8.10;99.90
60860;DHT22;46694;54.382;9.708;2023-10-31T14:00:43;8.10;99.90
60860;DHT22;46694;54.382;9.708;2023-10-31T14:03:12;8.10;99.90
60860;DHT22;46694;54.382;9.708;2023-10-31T14:05:38;8.00;99.90
60860;DHT22;46694;54.382;9.708;2023-10-31T14:08:04;8.00;99.90
60860;DHT22;46694;54.382;9.708;2023-10-31T14:10:33;7.90;99.90
60860;DHT22;46694;54.382;9.708;2023-10-31T14:12:59;7.90;99.90
60860;DHT22;46694;54.382;9.708;2023-10-31T14:15:25;7.90;99.90
60860;DHT22;46694;54.382;9.708;2023-10-31T14:17:51;7.80;99.90
60860;DHT22;46694;54.382;9.708;2023-10-31T14:20:17;7.80;99.90
60860;DHT22;46694;54.382;9.708;2023-10-31T14:22:49;7.70;99.90
60860;DHT22;46694;54.382;9.708;2023-10-31T14:25:15;7.70;99.90
60860;DHT22;46694;54.382;9.708;2023-10-31T14:27:42;7.70;99.90
60860;DHT22;46694;54.382;9.708;2023-10-31T14:30:10;7.70;99.90
60860;DHT22;46694;54.382;9.708;2023-10-31T14:32:36;7.70;99.90
60860;DHT22;46694;54.382;9.708;2023-10-31T14:35:03;7.60;99.90
60860;DHT22;46694;54.382;9.708;2023-10-31T14:37:29;7.70;99.90
60860;DHT22;46694;54.382;9.708;2023-10-31T14:39:54;7.60;99.90
60860;DHT22;46694;54.382;9.708;2023-10-31T14:42:20;7.60;99.90
60860;DHT22;46694;54.382;9.708;2023-10-31T14:44:47;7.50;99.90
60860;DHT22;46694;54.382;9.708;2023-10-31T14:47:12;7.50;99.90
60860;DHT22;46694;54.382;9.708;2023-10-31T14:49:38;7.60;99.90
60860;DHT22;46694;54.382;9.708;2023-10-31T14:52:04;7.60;99.90
60860;DHT22;46694;54.382;9.708;2023-10-31T14:54:33;7.60;99.90
60860;DHT22;46694;54.382;9.708;2023-10-31T14:57:01;7.70;99.90
60860;DHT22;46694;54.382;9.708;2023-10-31T14:59:27;7.70;99.90
60860;DHT22;46694;54.382;9.708;2023-10-31T15:01:53;7.70;99.90
60860;DHT22;46694;54.382;9.708;2023-10-31T15:04:19;7.60;99.90
60860;DHT22;46694;54.382;9.708;2023-10-31T15:06:44;7.60;99.90
60860;DHT22;46694;54.382;9.708;2023-10-31T15:09:10;7.60;99.90
60860;DHT22;46694;54.382;9.708;2023-10-31T15:11:36;7.50;99.90
60860;DHT22;46694;54.382;9.708;2023-10-31T15:14:03;7.50;99.90
60860;DHT22;46694;54.382;9.708;2023-10-31T15:16:28;7.40;99.90
60860;DHT22;46694;54.382;9.708;2023-10-31T15:18:54;7.50;99.90
60860;DHT22;46694;54.382;9.708;2023-10-31T15:21:20;7.40;99.90
60860;DHT22;46694;54.382;9.708;2023-10-31T15:23:47;7.40;99.90
60860;DHT22;46694;54.382;9.708;2023-10-31T15:26:13;7.40;99.90
60860;DHT22;46694;54.382;9.708;2023-10-31T15:28:45;7.40;99.90
60860;DHT22;46694;54.382;9.708;2023-10-31T15:31:11;7.30;99.90
60860;DHT22;46694;54.382;9.708;2023-10-31T15:36:05;7.10;99.90
60860;DHT22;46694;54.382;9.708;2023-10-31T15:38:31;7.00;99.90
60860;DHT22;46694;54.382;9.708;2023-10-31T15:40:56;7.00;99.90